sensor_id;sensor_type;location;lat;lon;timestamp;P1;durP1;ratioP1;P2;durP2;ratioP2
28343;SDS011;15597;50.914;6.638;2022-08-19T00:01:24;7.18;;;4.22;;
28343;SDS011;15597;50.914;6.638;2022-08-19T00:03:52;8.30;;;4.63;;
28343;SDS011;15597;50.914;6.638;2022-08-19T00:06:18;8.52;;;4.63;;
28343;SDS011;15597;50.914;6.638;2022-08-19T00:08:43;6.95;;;4.53;;
28343;SDS011;15597;50.914;6.638;2022-08-19T00:11:10;8.32;;;4.68;;
28343;SDS011;15597;50.914;6.638;2022-08-19T00:13:36;7.93;;;4.25;;
28343;SDS011;15597;50.914;6.638;2022-08-19T00:16:04;7.97;;;4.85;;
28343;SDS011;15597;50.914;6.638;2022-08-19T00:18:31;6.45;;;4.50;;
28343;SDS011;15597;50.914;6.638;2022-08-19T00:20:57;8.68;;;4.40;;
28343;SDS011;15597;50.914;6.638;2022-08-19T00:23:24;9.93;;;4.80;;
28343;SDS011;15597;50.914;6.638;2022-08-19T00:25:50;8.73;;;4.38;;
28343;SDS011;15597;50.914;6.638;2022-08-19T00:28:17;11.07;;;4.65;;
28343;SDS011;15597;50.914;6.638;2022-08-19T00:30:44;10.05;;;4.80;;
28343;SDS011;15597;50.914;6.638;2022-08-19T00:33:10;7.78;;;4.72;;
28343;SDS011;15597;50.914;6.638;2022-08-19T00:35:35;7.95;;;4.28;;
28343;SDS011;15597;50.914;6.638;2022-08-19T00:38:04;9.43;;;4.75;;
28343;SDS011;15597;50.914;6.638;2022-08-19T00:40:31;7.70;;;4.50;;
28343;SDS011;15597;50.914;6.638;2022-08-19T00:42:58;7.47;;;4.45;;
28343;SDS011;15597;50.914;6.638;2022-08-19T00:45:25;6.22;;;4.28;;
28343;SDS011;15597;50.914;6.638;2022-08-19T00:47:55;9.15;;;4.40;;
28343;SDS011;15597;50.914;6.638;2022-08-19T00:50:21;8.80;;;4.30;;
28343;SDS011;15597;50.914;6.638;2022-08-19T00:52:48;10.15;;;4.85;;
28343;SDS011;15597;50.914;6.638;2022-08-19T00:55:18;7.57;;;4.75;;
28343;SDS011;15597;50.914;6.638;2022-08-19T00:57:48;9.63;;;4.53;;
28343;SDS011;15597;50.914;6.638;2022-08-19T01:00:20;8.73;;;4.22;;
28343;SDS011;15597;50.914;6.638;2022-08-19T01:02:47;8.52;;;4.55;;
28343;SDS011;15597;50.914;6.638;2022-08-19T01:05:14;9.48;;;5.07;;
28343;SDS011;15597;50.914;6.638;2022-08-19T01:07:46;7.50;;;4.57;;
28343;SDS011;15597;50.914;6.638;2022-08-19T01:10:18;9.27;;;5.00;;
28343;SDS011;15597;50.914;6.638;2022-08-19T01:12:47;7.53;;;4.80;;
28343;SDS011;15597;50.914;6.638;2022-08-19T01:15:17;9.77;;;5.15;;
28343;SDS011;15597;50.914;6.638;2022-08-19T01:17:46;8.82;;;5.03;;
28343;SDS011;15597;50.914;6.638;2022-08-19T01:20:15;7.93;;;4.82;;
28343;SDS011;15597;50.914;6.638;2022-08-19T01:25:16;11.02;;;5.40;;
28343;SDS011;15597;50.914;6.638;2022-08-19T01:27:44;10.35;;;5.32;;
28343;SDS011;15597;50.914;6.638;2022-08-19T01:30:14;8.38;;;5.57;;
28343;SDS011;15597;50.914;6.638;2022-08-19T01:32:43;8.32;;;5.25;;
28343;SDS011;15597;50.914;6.638;2022-08-19T01:35:09;8.25;;;5.53;;
28343;SDS011;15597;50.914;6.638;2022-08-19T01:40:19;10.13;;;5.55;;
28343;SDS011;15597;50.914;6.638;2022-08-19T01:42:48;10.20;;;5.80;;
28343;SDS011;15597;50.914;6.638;2022-08-19T01:45:15;8.70;;;5.72;;
28343;SDS011;15597;50.914;6.638;2022-08-19T01:47:42;10.10;;;5.60;;
28343;SDS011;15597;50.914;6.638;2022-08-19T01:50:08;9.23;;;5.18;;
28343;SDS011;15597;50.914;6.638;2022-08-19T01:52:36;8.52;;;5.13;;
28343;SDS011;15597;50.914;6.638;2022-08-19T01:55:04;8.25;;;5.40;;
28343;SDS011;15597;50.914;6.638;2022-08-19T01:57:32;8.95;;;6.25;;
28343;SDS011;15597;50.914;6.638;2022-08-19T01:59:58;11.00;;;5.95;;
28343;SDS011;15597;50.914;6.638;2022-08-19T02:02:25;9.85;;;6.30;;
28343;SDS011;15597;50.914;6.638;2022-08-19T02:04:50;11.95;;;6.20;;
28343;SDS011;15597;50.914;6.638;2022-08-19T02:07:18;9.50;;;5.28;;
28343;SDS011;15597;50.914;6.638;2022-08-19T02:09:47;9.48;;;5.35;;
28343;SDS011;15597;50.914;6.638;2022-08-19T02:12:13;8.32;;;5.70;;
28343;SDS011;15597;50.914;6.638;2022-08-19T02:14:40;10.15;;;5.25;;
28343;SDS011;15597;50.914;6.638;2022-08-19T02:17:05;8.57;;;5.50;;
28343;SDS011;15597;50.914;6.638;2022-08-19T02:19:31;10.73;;;5.65;;
28343;SDS011;15597;50.914;6.638;2022-08-19T02:22:00;8.45;;;5.35;;
28343;SDS011;15597;50.914;6.638;2022-08-19T02:24:26;8.40;;;5.20;;
28343;SDS011;15597;50.914;6.638;2022-08-19T02:26:53;8.85;;;5.63;;
28343;SDS011;15597;50.914;6.638;2022-08-19T02:29:18;9.98;;;6.03;;
28343;SDS011;15597;50.914;6.638;2022-08-19T02:31:44;7.68;;;5.50;;
28343;SDS011;15597;50.914;6.638;2022-08-19T02:34:10;9.02;;;5.30;;
28343;SDS011;15597;50.914;6.638;2022-08-19T02:36:36;7.80;;;5.70;;
28343;SDS011;15597;50.914;6.638;2022-08-19T02:39:02;9.30;;;5.32;;
28343;SDS011;15597;50.914;6.638;2022-08-19T02:41:29;8.38;;;5.25;;
28343;SDS011;15597;50.914;6.638;2022-08-19T02:43:58;8.70;;;5.70;;
28343;SDS011;15597;50.914;6.638;2022-08-19T02:46:30;7.63;;;5.28;;
28343;SDS011;15597;50.914;6.638;2022-08-19T02:49:00;8.10;;;5.35;;
28343;SDS011;15597;50.914;6.638;2022-08-19T02:51:32;9.95;;;5.65;;
28343;SDS011;15597;50.914;6.638;2022-08-19T02:54:00;9.85;;;5.63;;
28343;SDS011;15597;50.914;6.638;2022-08-19T02:56:26;10.40;;;6.63;;
28343;SDS011;15597;50.914;6.638;2022-08-19T02:58:53;10.65;;;5.90;;
28343;SDS011;15597;50.914;6.638;2022-08-19T03:03:50;8.90;;;6.47;;
28343;SDS011;15597;50.914;6.638;2022-08-19T03:06:17;9.55;;;5.93;;
28343;SDS011;15597;50.914;6.638;2022-08-19T03:08:44;8.00;;;5.68;;
28343;SDS011;15597;50.914;6.638;2022-08-19T03:11:19;10.23;;;6.38;;
28343;SDS011;15597;50.914;6.638;2022-08-19T03:13:50;10.18;;;5.45;;
28343;SDS011;15597;50.914;6.638;2022-08-19T03:16:17;8.65;;;6.00;;
28343;SDS011;15597;50.914;6.638;2022-08-19T03:18:44;10.90;;;6.10;;
28343;SDS011;15597;50.914;6.638;2022-08-19T03:21:14;7.75;;;5.35;;
28343;SDS011;15597;50.914;6.638;2022-08-19T03:23:44;8.35;;;5.75;;
28343;SDS011;15597;50.914;6.638;2022-08-19T03:26:10;9.38;;;5.82;;
28343;SDS011;15597;50.914;6.638;2022-08-19T03:28:35;10.95;;;5.95;;
28343;SDS011;15597;50.914;6.638;2022-08-19T03:31:03;11.45;;;6.07;;
28343;SDS011;15597;50.914;6.638;2022-08-19T03:33:32;9.68;;;5.78;;
28343;SDS011;15597;50.914;6.638;2022-08-19T03:38:30;10.30;;;6.18;;
28343;SDS011;15597;50.914;6.638;2022-08-19T03:40:57;8.90;;;6.03;;
28343;SDS011;15597;50.914;6.638;2022-08-19T03:43:23;10.40;;;6.10;;
28343;SDS011;15597;50.914;6.638;2022-08-19T03:45:58;9.15;;;6.45;;
28343;SDS011;15597;50.914;6.638;2022-08-19T03:48:29;8.05;;;5.90;;
28343;SDS011;15597;50.914;6.638;2022-08-19T03:50:55;8.88;;;6.60;;
28343;SDS011;15597;50.914;6.638;2022-08-19T03:53:22;7.68;;;5.72;;
28343;SDS011;15597;50.914;6.638;2022-08-19T03:55:48;10.55;;;6.45;;
28343;SDS011;15597;50.914;6.638;2022-08-19T03:58:14;8.57;;;5.68;;
28343;SDS011;15597;50.914;6.638;2022-08-19T04:00:41;12.65;;;6.20;;
28343;SDS011;15597;50.914;6.638;2022-08-19T04:03:08;10.02;;;6.40;;
28343;SDS011;15597;50.914;6.638;2022-08-19T04:05:33;8.50;;;5.90;;
28343;SDS011;15597;50.914;6.638;2022-08-19T04:07:59;9.23;;;6.07;;
28343;SDS011;15597;50.914;6.638;2022-08-19T04:10:26;10.73;;;6.05;;
28343;SDS011;15597;50.914;6.638;2022-08-19T04:12:53;9.40;;;5.40;;
28343;SDS011;15597;50.914;6.638;2022-08-19T04:15:19;10.05;;;5.32;;
28343;SDS011;15597;50.914;6.638;2022-08-19T04:17:46;10.82;;;6.78;;
28343;SDS011;15597;50.914;6.638;2022-08-19T04:20:11;8.80;;;5.72;;
28343;SDS011;15597;50.914;6.638;2022-08-19T04:22:37;8.35;;;5.93;;
28343;SDS011;15597;50.914;6.638;2022-08-19T04:25:03;12.02;;;6.43;;
28343;SDS011;15597;50.914;6.638;2022-08-19T04:27:29;8.45;;;5.60;;
28343;SDS011;15597;50.914;6.638;2022-08-19T04:29:54;6.88;;;5.55;;
28343;SDS011;15597;50.914;6.638;2022-08-19T04:32:20;9.10;;;5.25;;
28343;SDS011;15597;50.914;6.638;2022-08-19T04:34:46;8.98;;;5.65;;
28343;SDS011;15597;50.914;6.638;2022-08-19T04:37:12;8.50;;;6.30;;
28343;SDS011;15597;50.914;6.638;2022-08-19T04:39:38;9.60;;;5.40;;
28343;SDS011;15597;50.914;6.638;2022-08-19T04:42:23;8.93;;;6.22;;
28343;SDS011;15597;50.914;6.638;2022-08-19T04:45:07;9.00;;;5.75;;
28343;SDS011;15597;50.914;6.638;2022-08-19T04:47:36;10.18;;;6.40;;
28343;SDS011;15597;50.914;6.638;2022-08-19T04:50:02;9.18;;;5.93;;
28343;SDS011;15597;50.914;6.638;2022-08-19T04:52:29;9.20;;;5.95;;
28343;SDS011;15597;50.914;6.638;2022-08-19T04:54:56;13.02;;;6.75;;
28343;SDS011;15597;50.914;6.638;2022-08-19T04:57:23;9.48;;;7.18;;
28343;SDS011;15597;50.914;6.638;2022-08-19T04:59:49;13.38;;;6.85;;
28343;SDS011;15597;50.914;6.638;2022-08-19T05:02:19;13.63;;;7.10;;
28343;SDS011;15597;50.914;6.638;2022-08-19T05:04:45;12.50;;;7.47;;
28343;SDS011;15597;50.914;6.638;2022-08-19T05:07:11;13.95;;;9.52;;
28343;SDS011;15597;50.914;6.638;2022-08-19T05:09:37;16.73;;;11.60;;
28343;SDS011;15597;50.914;6.638;2022-08-19T05:12:03;13.73;;;8.30;;
28343;SDS011;15597;50.914;6.638;2022-08-19T05:14:29;12.32;;;9.60;;
28343;SDS011;15597;50.914;6.638;2022-08-19T05:16:54;12.07;;;7.88;;
28343;SDS011;15597;50.914;6.638;2022-08-19T05:19:20;23.15;;;15.65;;
28343;SDS011;15597;50.914;6.638;2022-08-19T05:22:04;27.40;;;20.45;;
28343;SDS011;15597;50.914;6.638;2022-08-19T05:24:49;11.88;;;8.23;;
28343;SDS011;15597;50.914;6.638;2022-08-19T05:27:14;14.50;;;8.50;;
28343;SDS011;15597;50.914;6.638;2022-08-19T05:29:40;23.75;;;16.42;;
28343;SDS011;15597;50.914;6.638;2022-08-19T05:32:06;28.38;;;19.75;;
28343;SDS011;15597;50.914;6.638;2022-08-19T05:34:36;16.40;;;10.82;;
28343;SDS011;15597;50.914;6.638;2022-08-19T05:37:03;25.95;;;19.38;;
28343;SDS011;15597;50.914;6.638;2022-08-19T05:39:31;13.05;;;9.07;;
28343;SDS011;15597;50.914;6.638;2022-08-19T05:42:00;30.80;;;18.85;;
28343;SDS011;15597;50.914;6.638;2022-08-19T05:44:30;23.15;;;14.23;;
28343;SDS011;15597;50.914;6.638;2022-08-19T05:46:57;26.10;;;18.98;;
28343;SDS011;15597;50.914;6.638;2022-08-19T05:49:24;29.83;;;20.02;;
28343;SDS011;15597;50.914;6.638;2022-08-19T05:51:52;15.23;;;10.80;;
28343;SDS011;15597;50.914;6.638;2022-08-19T05:54:18;17.98;;;11.23;;
28343;SDS011;15597;50.914;6.638;2022-08-19T05:56:45;24.88;;;17.65;;
28343;SDS011;15597;50.914;6.638;2022-08-19T05:59:13;24.80;;;16.73;;
28343;SDS011;15597;50.914;6.638;2022-08-19T06:01:43;19.15;;;13.75;;
28343;SDS011;15597;50.914;6.638;2022-08-19T06:04:12;13.98;;;9.65;;
28343;SDS011;15597;50.914;6.638;2022-08-19T06:06:39;28.38;;;15.73;;
28343;SDS011;15597;50.914;6.638;2022-08-19T06:09:05;16.48;;;11.20;;
28343;SDS011;15597;50.914;6.638;2022-08-19T06:14:29;13.77;;;9.38;;
28343;SDS011;15597;50.914;6.638;2022-08-19T06:16:57;16.58;;;11.35;;
28343;SDS011;15597;50.914;6.638;2022-08-19T06:19:27;18.15;;;11.23;;
28343;SDS011;15597;50.914;6.638;2022-08-19T06:21:58;16.48;;;10.73;;
28343;SDS011;15597;50.914;6.638;2022-08-19T06:24:27;29.10;;;17.27;;
28343;SDS011;15597;50.914;6.638;2022-08-19T06:26:55;36.75;;;20.60;;
28343;SDS011;15597;50.914;6.638;2022-08-19T06:29:22;17.85;;;11.30;;
28343;SDS011;15597;50.914;6.638;2022-08-19T06:31:50;26.48;;;17.75;;
28343;SDS011;15597;50.914;6.638;2022-08-19T06:34:18;16.27;;;10.07;;
28343;SDS011;15597;50.914;6.638;2022-08-19T06:36:46;24.00;;;16.88;;
28343;SDS011;15597;50.914;6.638;2022-08-19T06:39:18;24.50;;;14.57;;
28343;SDS011;15597;50.914;6.638;2022-08-19T06:41:47;35.90;;;19.60;;
28343;SDS011;15597;50.914;6.638;2022-08-19T06:44:17;32.42;;;17.02;;
28343;SDS011;15597;50.914;6.638;2022-08-19T06:46:44;22.42;;;12.82;;
28343;SDS011;15597;50.914;6.638;2022-08-19T06:49:10;24.73;;;14.23;;
28343;SDS011;15597;50.914;6.638;2022-08-19T06:51:36;14.50;;;9.40;;
28343;SDS011;15597;50.914;6.638;2022-08-19T06:54:04;18.92;;;12.88;;
28343;SDS011;15597;50.914;6.638;2022-08-19T06:56:30;15.80;;;10.50;;
28343;SDS011;15597;50.914;6.638;2022-08-19T06:59:04;24.02;;;14.05;;
28343;SDS011;15597;50.914;6.638;2022-08-19T07:01:36;34.03;;;20.48;;
28343;SDS011;15597;50.914;6.638;2022-08-19T07:04:04;32.42;;;18.95;;
28343;SDS011;15597;50.914;6.638;2022-08-19T07:06:32;17.38;;;10.65;;
28343;SDS011;15597;50.914;6.638;2022-08-19T07:08:58;25.23;;;13.60;;
28343;SDS011;15597;50.914;6.638;2022-08-19T07:11:24;17.40;;;10.70;;
28343;SDS011;15597;50.914;6.638;2022-08-19T07:13:50;21.73;;;12.52;;
28343;SDS011;15597;50.914;6.638;2022-08-19T07:16:19;39.65;;;22.58;;
28343;SDS011;15597;50.914;6.638;2022-08-19T07:18:46;32.15;;;16.02;;
28343;SDS011;15597;50.914;6.638;2022-08-19T07:21:15;18.83;;;11.10;;
28343;SDS011;15597;50.914;6.638;2022-08-19T07:23:43;17.73;;;11.02;;
28343;SDS011;15597;50.914;6.638;2022-08-19T07:26:11;27.08;;;15.18;;
28343;SDS011;15597;50.914;6.638;2022-08-19T07:28:39;33.03;;;17.50;;
28343;SDS011;15597;50.914;6.638;2022-08-19T07:31:06;44.22;;;25.95;;
28343;SDS011;15597;50.914;6.638;2022-08-19T07:33:32;34.40;;;19.13;;
28343;SDS011;15597;50.914;6.638;2022-08-19T07:35:58;18.73;;;9.88;;
28343;SDS011;15597;50.914;6.638;2022-08-19T07:38:24;29.50;;;16.08;;
28343;SDS011;15597;50.914;6.638;2022-08-19T07:40:50;18.30;;;10.80;;
28343;SDS011;15597;50.914;6.638;2022-08-19T07:43:16;41.65;;;23.58;;
28343;SDS011;15597;50.914;6.638;2022-08-19T07:45:47;25.50;;;15.10;;
28343;SDS011;15597;50.914;6.638;2022-08-19T07:48:13;15.75;;;10.18;;
28343;SDS011;15597;50.914;6.638;2022-08-19T07:50:39;13.93;;;8.68;;
28343;SDS011;15597;50.914;6.638;2022-08-19T07:53:05;20.90;;;12.45;;
28343;SDS011;15597;50.914;6.638;2022-08-19T07:55:31;38.03;;;19.88;;
28343;SDS011;15597;50.914;6.638;2022-08-19T07:57:57;16.33;;;10.65;;
28343;SDS011;15597;50.914;6.638;2022-08-19T08:00:22;14.10;;;8.40;;
28343;SDS011;15597;50.914;6.638;2022-08-19T08:02:48;43.50;;;23.15;;
28343;SDS011;15597;50.914;6.638;2022-08-19T08:05:14;20.38;;;11.48;;
28343;SDS011;15597;50.914;6.638;2022-08-19T08:07:58;30.15;;;17.70;;
28343;SDS011;15597;50.914;6.638;2022-08-19T08:10:42;23.80;;;12.98;;
28343;SDS011;15597;50.914;6.638;2022-08-19T08:13:08;15.38;;;9.68;;
28343;SDS011;15597;50.914;6.638;2022-08-19T08:15:33;33.45;;;19.75;;
28343;SDS011;15597;50.914;6.638;2022-08-19T08:18:00;14.13;;;8.43;;
28343;SDS011;15597;50.914;6.638;2022-08-19T08:20:25;31.27;;;19.00;;
28343;SDS011;15597;50.914;6.638;2022-08-19T08:22:51;33.75;;;20.08;;
28343;SDS011;15597;50.914;6.638;2022-08-19T08:25:35;14.50;;;9.82;;
28343;SDS011;15597;50.914;6.638;2022-08-19T08:28:02;27.23;;;15.82;;
28343;SDS011;15597;50.914;6.638;2022-08-19T08:30:28;27.95;;;17.48;;
28343;SDS011;15597;50.914;6.638;2022-08-19T08:32:57;20.73;;;13.68;;
28343;SDS011;15597;50.914;6.638;2022-08-19T08:35:24;13.85;;;9.02;;
28343;SDS011;15597;50.914;6.638;2022-08-19T08:37:50;28.92;;;17.58;;
28343;SDS011;15597;50.914;6.638;2022-08-19T08:40:38;18.98;;;11.93;;
28343;SDS011;15597;50.914;6.638;2022-08-19T08:46:07;30.50;;;18.75;;
28343;SDS011;15597;50.914;6.638;2022-08-19T08:51:52;27.15;;;16.05;;
28343;SDS011;15597;50.914;6.638;2022-08-19T08:54:27;9.63;;;6.53;;
28343;SDS011;15597;50.914;6.638;2022-08-19T08:56:58;18.40;;;11.75;;
28343;SDS011;15597;50.914;6.638;2022-08-19T08:59:26;21.50;;;14.50;;
28343;SDS011;15597;50.914;6.638;2022-08-19T09:01:57;14.00;;;9.00;;
28343;SDS011;15597;50.914;6.638;2022-08-19T09:04:23;11.93;;;8.35;;
28343;SDS011;15597;50.914;6.638;2022-08-19T09:09:38;19.48;;;12.00;;
28343;SDS011;15597;50.914;6.638;2022-08-19T09:12:13;16.05;;;10.30;;
28343;SDS011;15597;50.914;6.638;2022-08-19T09:17:10;14.15;;;8.90;;
28343;SDS011;15597;50.914;6.638;2022-08-19T09:19:48;11.65;;;7.63;;
28343;SDS011;15597;50.914;6.638;2022-08-19T09:22:14;11.80;;;7.38;;
28343;SDS011;15597;50.914;6.638;2022-08-19T09:24:41;16.85;;;10.07;;
28343;SDS011;15597;50.914;6.638;2022-08-19T09:27:06;17.85;;;10.93;;
28343;SDS011;15597;50.914;6.638;2022-08-19T09:29:32;15.13;;;9.65;;
28343;SDS011;15597;50.914;6.638;2022-08-19T09:31:57;15.23;;;9.32;;
28343;SDS011;15597;50.914;6.638;2022-08-19T09:34:23;18.80;;;10.40;;
28343;SDS011;15597;50.914;6.638;2022-08-19T09:36:49;18.98;;;12.10;;
28343;SDS011;15597;50.914;6.638;2022-08-19T09:39:19;14.20;;;9.38;;
28343;SDS011;15597;50.914;6.638;2022-08-19T09:41:45;11.63;;;6.93;;
28343;SDS011;15597;50.914;6.638;2022-08-19T09:44:11;17.80;;;11.60;;
28343;SDS011;15597;50.914;6.638;2022-08-19T09:46:37;26.85;;;15.13;;
28343;SDS011;15597;50.914;6.638;2022-08-19T09:49:03;8.73;;;6.60;;
28343;SDS011;15597;50.914;6.638;2022-08-19T09:51:31;11.88;;;7.60;;
28343;SDS011;15597;50.914;6.638;2022-08-19T09:54:01;11.25;;;8.00;;
28343;SDS011;15597;50.914;6.638;2022-08-19T09:56:28;12.32;;;7.53;;
28343;SDS011;15597;50.914;6.638;2022-08-19T09:58:57;10.88;;;6.90;;
28343;SDS011;15597;50.914;6.638;2022-08-19T10:01:24;14.20;;;9.75;;
28343;SDS011;15597;50.914;6.638;2022-08-19T10:03:53;10.82;;;6.93;;
28343;SDS011;15597;50.914;6.638;2022-08-19T10:06:21;10.40;;;7.38;;
28343;SDS011;15597;50.914;6.638;2022-08-19T10:08:49;11.50;;;6.70;;
28343;SDS011;15597;50.914;6.638;2022-08-19T10:11:15;10.80;;;6.72;;
28343;SDS011;15597;50.914;6.638;2022-08-19T10:13:42;18.13;;;10.57;;
28343;SDS011;15597;50.914;6.638;2022-08-19T10:16:13;12.95;;;7.53;;
28343;SDS011;15597;50.914;6.638;2022-08-19T10:18:41;15.23;;;10.02;;
28343;SDS011;15597;50.914;6.638;2022-08-19T10:21:10;12.10;;;7.00;;
28343;SDS011;15597;50.914;6.638;2022-08-19T10:23:39;13.15;;;7.47;;
28343;SDS011;15597;50.914;6.638;2022-08-19T10:26:11;10.95;;;6.72;;
28343;SDS011;15597;50.914;6.638;2022-08-19T10:28:38;10.95;;;7.80;;
28343;SDS011;15597;50.914;6.638;2022-08-19T10:31:09;13.40;;;8.63;;
28343;SDS011;15597;50.914;6.638;2022-08-19T10:33:38;14.90;;;10.48;;
28343;SDS011;15597;50.914;6.638;2022-08-19T10:36:14;14.48;;;8.15;;
28343;SDS011;15597;50.914;6.638;2022-08-19T10:38:43;11.05;;;7.85;;
28343;SDS011;15597;50.914;6.638;2022-08-19T10:41:11;11.50;;;8.80;;
28343;SDS011;15597;50.914;6.638;2022-08-19T10:43:39;13.80;;;8.85;;
28343;SDS011;15597;50.914;6.638;2022-08-19T10:46:06;12.30;;;7.20;;
28343;SDS011;15597;50.914;6.638;2022-08-19T10:48:36;10.45;;;6.72;;
28343;SDS011;15597;50.914;6.638;2022-08-19T10:51:02;10.82;;;8.05;;
28343;SDS011;15597;50.914;6.638;2022-08-19T10:53:47;16.52;;;10.40;;
28343;SDS011;15597;50.914;6.638;2022-08-19T10:56:13;13.05;;;9.00;;
28343;SDS011;15597;50.914;6.638;2022-08-19T10:58:57;11.35;;;8.02;;
28343;SDS011;15597;50.914;6.638;2022-08-19T11:01:24;14.65;;;11.02;;
28343;SDS011;15597;50.914;6.638;2022-08-19T11:03:51;11.38;;;8.60;;
28343;SDS011;15597;50.914;6.638;2022-08-19T11:06:17;11.55;;;7.82;;
28343;SDS011;15597;50.914;6.638;2022-08-19T11:08:44;10.52;;;7.70;;
28343;SDS011;15597;50.914;6.638;2022-08-19T11:11:10;11.57;;;8.68;;
28343;SDS011;15597;50.914;6.638;2022-08-19T11:13:39;10.70;;;7.75;;
28343;SDS011;15597;50.914;6.638;2022-08-19T11:16:07;11.18;;;8.38;;
28343;SDS011;15597;50.914;6.638;2022-08-19T11:18:36;12.95;;;8.93;;
28343;SDS011;15597;50.914;6.638;2022-08-19T11:21:18;14.68;;;8.57;;
28343;SDS011;15597;50.914;6.638;2022-08-19T11:23:51;16.73;;;9.90;;
28343;SDS011;15597;50.914;6.638;2022-08-19T11:26:20;16.20;;;10.20;;
28343;SDS011;15597;50.914;6.638;2022-08-19T11:28:46;19.20;;;13.07;;
28343;SDS011;15597;50.914;6.638;2022-08-19T11:31:13;15.25;;;10.18;;
28343;SDS011;15597;50.914;6.638;2022-08-19T11:33:40;11.13;;;7.50;;
28343;SDS011;15597;50.914;6.638;2022-08-19T11:36:06;17.08;;;10.90;;
28343;SDS011;15597;50.914;6.638;2022-08-19T11:38:33;13.70;;;8.57;;
28343;SDS011;15597;50.914;6.638;2022-08-19T11:41:01;14.25;;;8.38;;
28343;SDS011;15597;50.914;6.638;2022-08-19T11:43:30;14.45;;;9.93;;
28343;SDS011;15597;50.914;6.638;2022-08-19T11:45:56;12.98;;;8.57;;
28343;SDS011;15597;50.914;6.638;2022-08-19T11:48:22;15.00;;;8.27;;
28343;SDS011;15597;50.914;6.638;2022-08-19T11:50:50;14.48;;;9.73;;
28343;SDS011;15597;50.914;6.638;2022-08-19T11:55:45;10.52;;;7.00;;
28343;SDS011;15597;50.914;6.638;2022-08-19T11:58:13;13.35;;;8.88;;
28343;SDS011;15597;50.914;6.638;2022-08-19T12:00:40;12.73;;;8.18;;
28343;SDS011;15597;50.914;6.638;2022-08-19T12:03:06;10.02;;;6.80;;
28343;SDS011;15597;50.914;6.638;2022-08-19T12:05:32;12.10;;;7.45;;
28343;SDS011;15597;50.914;6.638;2022-08-19T12:07:58;10.88;;;7.70;;
28343;SDS011;15597;50.914;6.638;2022-08-19T12:10:24;10.48;;;6.25;;
28343;SDS011;15597;50.914;6.638;2022-08-19T12:12:50;16.45;;;7.90;;
28343;SDS011;15597;50.914;6.638;2022-08-19T12:15:16;7.93;;;5.43;;
28343;SDS011;15597;50.914;6.638;2022-08-19T12:17:42;11.05;;;7.43;;
28343;SDS011;15597;50.914;6.638;2022-08-19T12:20:08;9.52;;;5.75;;
28343;SDS011;15597;50.914;6.638;2022-08-19T12:22:36;10.98;;;7.47;;
28343;SDS011;15597;50.914;6.638;2022-08-19T12:25:04;12.88;;;7.10;;
28343;SDS011;15597;50.914;6.638;2022-08-19T12:27:30;11.18;;;6.70;;
28343;SDS011;15597;50.914;6.638;2022-08-19T12:29:56;14.82;;;7.13;;
28343;SDS011;15597;50.914;6.638;2022-08-19T12:32:22;10.88;;;6.93;;
28343;SDS011;15597;50.914;6.638;2022-08-19T12:37:15;9.60;;;5.90;;
28343;SDS011;15597;50.914;6.638;2022-08-19T12:39:42;9.93;;;6.00;;
28343;SDS011;15597;50.914;6.638;2022-08-19T12:42:09;9.50;;;6.47;;
28343;SDS011;15597;50.914;6.638;2022-08-19T12:44:38;10.77;;;6.50;;
28343;SDS011;15597;50.914;6.638;2022-08-19T12:47:05;9.25;;;6.03;;
28343;SDS011;15597;50.914;6.638;2022-08-19T12:49:32;8.35;;;6.00;;
28343;SDS011;15597;50.914;6.638;2022-08-19T12:56:52;8.55;;;5.20;;
28343;SDS011;15597;50.914;6.638;2022-08-19T12:59:17;10.25;;;6.55;;
28343;SDS011;15597;50.914;6.638;2022-08-19T13:01:44;7.90;;;4.70;;
28343;SDS011;15597;50.914;6.638;2022-08-19T13:04:10;10.75;;;7.25;;
28343;SDS011;15597;50.914;6.638;2022-08-19T13:06:36;9.38;;;6.18;;
28343;SDS011;15597;50.914;6.638;2022-08-19T13:09:03;8.68;;;5.97;;
28343;SDS011;15597;50.914;6.638;2022-08-19T13:11:29;8.88;;;5.40;;
28343;SDS011;15597;50.914;6.638;2022-08-19T13:13:59;8.55;;;5.25;;
28343;SDS011;15597;50.914;6.638;2022-08-19T13:16:25;10.63;;;5.78;;
28343;SDS011;15597;50.914;6.638;2022-08-19T13:18:53;7.47;;;4.65;;
28343;SDS011;15597;50.914;6.638;2022-08-19T13:21:20;8.13;;;5.00;;
28343;SDS011;15597;50.914;6.638;2022-08-19T13:23:48;10.40;;;6.10;;
28343;SDS011;15597;50.914;6.638;2022-08-19T13:26:14;8.73;;;5.72;;
28343;SDS011;15597;50.914;6.638;2022-08-19T13:28:41;11.13;;;5.72;;
28343;SDS011;15597;50.914;6.638;2022-08-19T13:31:27;11.05;;;6.68;;
28343;SDS011;15597;50.914;6.638;2022-08-19T13:34:13;10.05;;;5.78;;
28343;SDS011;15597;50.914;6.638;2022-08-19T13:36:39;8.10;;;6.05;;
28343;SDS011;15597;50.914;6.638;2022-08-19T13:39:05;9.40;;;5.72;;
28343;SDS011;15597;50.914;6.638;2022-08-19T13:41:32;9.55;;;6.05;;
28343;SDS011;15597;50.914;6.638;2022-08-19T13:43:59;10.77;;;5.82;;
28343;SDS011;15597;50.914;6.638;2022-08-19T13:46:24;8.02;;;5.70;;
28343;SDS011;15597;50.914;6.638;2022-08-19T13:48:50;7.88;;;5.30;;
28343;SDS011;15597;50.914;6.638;2022-08-19T13:51:16;7.32;;;5.45;;
28343;SDS011;15597;50.914;6.638;2022-08-19T13:53:43;6.90;;;5.00;;
28343;SDS011;15597;50.914;6.638;2022-08-19T13:56:11;8.05;;;4.20;;
28343;SDS011;15597;50.914;6.638;2022-08-19T13:58:39;8.00;;;4.90;;
28343;SDS011;15597;50.914;6.638;2022-08-19T14:01:05;6.93;;;4.30;;
28343;SDS011;15597;50.914;6.638;2022-08-19T14:03:32;7.00;;;3.67;;
28343;SDS011;15597;50.914;6.638;2022-08-19T14:08:24;7.10;;;4.30;;
28343;SDS011;15597;50.914;6.638;2022-08-19T14:10:53;5.95;;;3.38;;
28343;SDS011;15597;50.914;6.638;2022-08-19T14:13:20;5.90;;;3.40;;
28343;SDS011;15597;50.914;6.638;2022-08-19T14:15:47;5.38;;;3.40;;
28343;SDS011;15597;50.914;6.638;2022-08-19T14:18:14;4.50;;;2.97;;
28343;SDS011;15597;50.914;6.638;2022-08-19T14:20:40;5.28;;;3.75;;
28343;SDS011;15597;50.914;6.638;2022-08-19T14:23:07;4.35;;;2.40;;
28343;SDS011;15597;50.914;6.638;2022-08-19T14:25:33;5.93;;;2.83;;
28343;SDS011;15597;50.914;6.638;2022-08-19T14:27:59;7.65;;;2.97;;
28343;SDS011;15597;50.914;6.638;2022-08-19T14:30:29;5.00;;;2.90;;
28343;SDS011;15597;50.914;6.638;2022-08-19T14:32:57;5.72;;;3.63;;
28343;SDS011;15597;50.914;6.638;2022-08-19T14:35:25;6.38;;;3.33;;
28343;SDS011;15597;50.914;6.638;2022-08-19T14:37:52;5.18;;;3.28;;
28343;SDS011;15597;50.914;6.638;2022-08-19T14:40:24;4.50;;;2.60;;
28343;SDS011;15597;50.914;6.638;2022-08-19T14:42:53;5.18;;;3.00;;
28343;SDS011;15597;50.914;6.638;2022-08-19T14:45:25;5.47;;;2.80;;
28343;SDS011;15597;50.914;6.638;2022-08-19T14:47:52;5.15;;;2.70;;
28343;SDS011;15597;50.914;6.638;2022-08-19T14:50:18;4.70;;;3.25;;
28343;SDS011;15597;50.914;6.638;2022-08-19T14:52:45;6.03;;;2.90;;
28343;SDS011;15597;50.914;6.638;2022-08-19T14:55:13;6.20;;;3.03;;
28343;SDS011;15597;50.914;6.638;2022-08-19T14:57:40;4.15;;;2.40;;
28343;SDS011;15597;50.914;6.638;2022-08-19T15:00:07;8.38;;;2.67;;
28343;SDS011;15597;50.914;6.638;2022-08-19T15:02:41;4.65;;;2.90;;
28343;SDS011;15597;50.914;6.638;2022-08-19T15:05:09;4.30;;;2.45;;
28343;SDS011;15597;50.914;6.638;2022-08-19T15:07:35;5.53;;;2.60;;
28343;SDS011;15597;50.914;6.638;2022-08-19T15:10:02;5.75;;;2.53;;
28343;SDS011;15597;50.914;6.638;2022-08-19T15:12:28;5.05;;;2.75;;
28343;SDS011;15597;50.914;6.638;2022-08-19T15:14:54;4.97;;;2.60;;
28343;SDS011;15597;50.914;6.638;2022-08-19T15:17:20;4.55;;;2.03;;